sensor_id;sensor_type;location;lat;lon;timestamp;P1;durP1;ratioP1;P2;durP2;ratioP2
84623;SDS011;74849;51.340;12.610;2024-02-21T05:30:13;8.15;;;2.90;;
84623;SDS011;74849;51.340;12.610;2024-02-21T05:32:40;9.73;;;3.28;;
84623;SDS011;74849;51.340;12.610;2024-02-21T05:35:07;7.28;;;2.55;;
84623;SDS011;74849;51.340;12.610;2024-02-21T05:37:34;11.40;;;3.00;;
84623;SDS011;74849;51.340;12.610;2024-02-21T05:40:01;7.60;;;2.47;;
84623;SDS011;74849;51.340;12.610;2024-02-21T05:42:28;6.18;;;2.80;;
84623;SDS011;74849;51.340;12.610;2024-02-21T05:44:55;8.43;;;3.30;;
84623;SDS011;74849;51.340;12.610;2024-02-21T05:47:22;7.20;;;2.58;;
84623;SDS011;74849;51.340;12.610;2024-02-21T05:49:49;7.25;;;3.10;;
84623;SDS011;74849;51.340;12.610;2024-02-21T05:52:19;9.40;;;3.88;;
84623;SDS011;74849;51.340;12.610;2024-02-21T05:54:46;6.63;;;3.28;;
84623;SDS011;74849;51.340;12.610;2024-02-21T05:57:13;9.65;;;2.67;;
84623;SDS011;74849;51.340;12.610;2024-02-21T05:59:39;8.93;;;2.88;;
84623;SDS011;74849;51.340;12.610;2024-02-21T06:02:07;11.32;;;3.42;;
84623;SDS011;74849;51.340;12.610;2024-02-21T06:04:34;7.75;;;4.20;;
84623;SDS011;74849;51.340;12.610;2024-02-21T06:07:01;10.48;;;3.22;;
84623;SDS011;74849;51.340;12.610;2024-02-21T06:09:28;8.13;;;3.40;;
84623;SDS011;74849;51.340;12.610;2024-02-21T06:11:55;9.20;;;3.15;;
84623;SDS011;74849;51.340;12.610;2024-02-21T06:14:22;5.50;;;2.60;;
84623;SDS011;74849;51.340;12.610;2024-02-21T06:16:49;10.75;;;3.13;;
84623;SDS011;74849;51.340;12.610;2024-02-21T06:19:16;13.52;;;3.30;;
84623;SDS011;74849;51.340;12.610;2024-02-21T06:21:43;12.18;;;3.15;;
84623;SDS011;74849;51.340;12.610;2024-02-21T06:24:10;9.02;;;3.47;;
84623;SDS011;74849;51.340;12.610;2024-02-21T06:26:39;8.23;;;2.92;;
84623;SDS011;74849;51.340;12.610;2024-02-21T06:29:06;7.40;;;3.03;;
84623;SDS011;74849;51.340;12.610;2024-02-21T06:31:33;7.05;;;3.03;;
84623;SDS011;74849;51.340;12.610;2024-02-21T06:34:00;5.95;;;2.38;;
84623;SDS011;74849;51.340;12.610;2024-02-21T06:36:28;8.18;;;3.55;;
84623;SDS011;74849;51.340;12.610;2024-02-21T06:38:55;7.28;;;3.13;;
84623;SDS011;74849;51.340;12.610;2024-02-21T06:41:24;7.13;;;3.20;;
84623;SDS011;74849;51.340;12.610;2024-02-21T06:43:51;7.13;;;3.47;;
84623;SDS011;74849;51.340;12.610;2024-02-21T06:46:25;8.10;;;3.92;;
84623;SDS011;74849;51.340;12.610;2024-02-21T06:48:54;6.10;;;3.05;;
84623;SDS011;74849;51.340;12.610;2024-02-21T06:51:24;7.28;;;3.70;;
84623;SDS011;74849;51.340;12.610;2024-02-21T06:53:52;8.13;;;3.25;;
84623;SDS011;74849;51.340;12.610;2024-02-21T06:56:19;9.18;;;3.40;;
84623;SDS011;74849;51.340;12.610;2024-02-21T06:58:46;7.57;;;3.15;;
84623;SDS011;74849;51.340;12.610;2024-02-21T07:01:13;9.07;;;3.60;;
84623;SDS011;74849;51.340;12.610;2024-02-21T07:03:40;7.20;;;3.20;;
84623;SDS011;74849;51.340;12.610;2024-02-21T07:06:07;8.82;;;3.25;;
84623;SDS011;74849;51.340;12.610;2024-02-21T07:08:34;9.05;;;3.83;;
84623;SDS011;74849;51.340;12.610;2024-02-21T07:11:01;9.00;;;3.67;;
84623;SDS011;74849;51.340;12.610;2024-02-21T07:13:28;8.20;;;2.58;;
84623;SDS011;74849;51.340;12.610;2024-02-21T07:15:55;9.90;;;3.53;;
84623;SDS011;74849;51.340;12.610;2024-02-21T07:18:22;7.40;;;3.70;;
84623;SDS011;74849;51.340;12.610;2024-02-21T07:20:51;38.63;;;13.32;;
84623;SDS011;74849;51.340;12.610;2024-02-21T07:23:18;34.97;;;15.85;;
84623;SDS011;74849;51.340;12.610;2024-02-21T07:25:45;8.13;;;5.20;;
84623;SDS011;74849;51.340;12.610;2024-02-21T07:28:12;10.27;;;3.70;;
84623;SDS011;74849;51.340;12.610;2024-02-21T07:30:40;9.50;;;3.40;;
84623;SDS011;74849;51.340;12.610;2024-02-21T07:33:07;11.80;;;3.70;;
84623;SDS011;74849;51.340;12.610;2024-02-21T07:35:34;7.43;;;2.90;;
84623;SDS011;74849;51.340;12.610;2024-02-21T07:38:04;9.52;;;3.17;;
84623;SDS011;74849;51.340;12.610;2024-02-21T07:40:31;7.45;;;2.90;;
84623;SDS011;74849;51.340;12.610;2024-02-21T07:42:58;10.02;;;3.00;;
84623;SDS011;74849;51.340;12.610;2024-02-21T07:45:24;8.00;;;3.33;;
84623;SDS011;74849;51.340;12.610;2024-02-21T07:47:52;8.90;;;3.30;;
84623;SDS011;74849;51.340;12.610;2024-02-21T07:50:19;5.35;;;3.03;;
84623;SDS011;74849;51.340;12.610;2024-02-21T07:52:46;8.75;;;3.47;;
84623;SDS011;74849;51.340;12.610;2024-02-21T07:55:13;7.88;;;3.13;;
84623;SDS011;74849;51.340;12.610;2024-02-21T07:57:40;10.50;;;3.97;;
84623;SDS011;74849;51.340;12.610;2024-02-21T08:00:07;6.80;;;3.33;;
84623;SDS011;74849;51.340;12.610;2024-02-21T08:02:43;7.28;;;3.70;;
84623;SDS011;74849;51.340;12.610;2024-02-21T08:05:10;8.68;;;4.07;;
84623;SDS011;74849;51.340;12.610;2024-02-21T08:07:38;6.32;;;3.40;;
84623;SDS011;74849;51.340;12.610;2024-02-21T08:10:05;8.13;;;3.60;;
84623;SDS011;74849;51.340;12.610;2024-02-21T08:12:35;7.63;;;3.65;;
84623;SDS011;74849;51.340;12.610;2024-02-21T08:15:02;10.75;;;4.60;;
84623;SDS011;74849;51.340;12.610;2024-02-21T08:17:30;10.85;;;3.88;;
84623;SDS011;74849;51.340;12.610;2024-02-21T08:19:57;8.00;;;3.78;;
84623;SDS011;74849;51.340;12.610;2024-02-21T08:22:23;7.90;;;3.70;;
84623;SDS011;74849;51.340;12.610;2024-02-21T08:24:50;9.30;;;3.60;;
84623;SDS011;74849;51.340;12.610;2024-02-21T08:27:17;5.32;;;2.53;;
84623;SDS011;74849;51.340;12.610;2024-02-21T08:29:44;5.53;;;3.38;;
84623;SDS011;74849;51.340;12.610;2024-02-21T08:32:11;8.35;;;3.88;;
84623;SDS011;74849;51.340;12.610;2024-02-21T08:34:38;8.45;;;3.22;;
84623;SDS011;74849;51.340;12.610;2024-02-21T08:37:05;9.25;;;4.07;;
84623;SDS011;74849;51.340;12.610;2024-02-21T08:39:32;6.00;;;3.38;;
84623;SDS011;74849;51.340;12.610;2024-02-21T08:41:59;10.00;;;4.00;;
84623;SDS011;74849;51.340;12.610;2024-02-21T08:44:27;8.15;;;3.72;;
84623;SDS011;74849;51.340;12.610;2024-02-21T08:46:54;9.30;;;3.72;;
84623;SDS011;74849;51.340;12.610;2024-02-21T08:49:22;8.27;;;3.95;;
84623;SDS011;74849;51.340;12.610;2024-02-21T08:51:49;9.82;;;5.03;;
84623;SDS011;74849;51.340;12.610;2024-02-21T08:54:15;9.75;;;3.33;;
84623;SDS011;74849;51.340;12.610;2024-02-21T08:56:42;10.20;;;4.13;;
84623;SDS011;74849;51.340;12.610;2024-02-21T08:59:09;12.45;;;4.13;;
84623;SDS011;74849;51.340;12.610;2024-02-21T09:01:36;9.80;;;3.78;;
84623;SDS011;74849;51.340;12.610;2024-02-21T09:04:03;9.45;;;4.47;;
84623;SDS011;74849;51.340;12.610;2024-02-21T09:06:30;10.27;;;4.38;;
84623;SDS011;74849;51.340;12.610;2024-02-21T09:08:59;9.88;;;3.95;;
84623;SDS011;74849;51.340;12.610;2024-02-21T09:11:26;7.88;;;3.72;;
84623;SDS011;74849;51.340;12.610;2024-02-21T09:13:53;8.90;;;3.90;;
84623;SDS011;74849;51.340;12.610;2024-02-21T09:16:20;7.22;;;2.97;;
84623;SDS011;74849;51.340;12.610;2024-02-21T09:18:48;7.55;;;3.63;;
84623;SDS011;74849;51.340;12.610;2024-02-21T09:21:15;13.30;;;4.00;;
84623;SDS011;74849;51.340;12.610;2024-02-21T09:23:42;7.32;;;4.07;;
84623;SDS011;74849;51.340;12.610;2024-02-21T09:26:09;10.48;;;3.88;;
84623;SDS011;74849;51.340;12.610;2024-02-21T09:28:39;10.27;;;3.92;;
84623;SDS011;74849;51.340;12.610;2024-02-21T09:31:06;13.32;;;3.83;;
84623;SDS011;74849;51.340;12.610;2024-02-21T09:33:33;14.55;;;3.70;;
84623;SDS011;74849;51.340;12.610;2024-02-21T09:36:00;9.20;;;3.83;;
84623;SDS011;74849;51.340;12.610;2024-02-21T09:38:27;11.07;;;4.15;;
84623;SDS011;74849;51.340;12.610;2024-02-21T09:43:44;7.07;;;3.38;;
84623;SDS011;74849;51.340;12.610;2024-02-21T09:46:13;11.55;;;4.82;;
84623;SDS011;74849;51.340;12.610;2024-02-21T09:51:48;6.68;;;4.07;;
84623;SDS011;74849;51.340;12.610;2024-02-21T09:54:18;6.78;;;3.75;;
84623;SDS011;74849;51.340;12.610;2024-02-21T09:56:46;11.35;;;4.55;;
84623;SDS011;74849;51.340;12.610;2024-02-21T09:59:14;12.07;;;4.38;;
84623;SDS011;74849;51.340;12.610;2024-02-21T10:01:42;8.68;;;4.22;;
84623;SDS011;74849;51.340;12.610;2024-02-21T10:04:10;9.15;;;4.28;;
84623;SDS011;74849;51.340;12.610;2024-02-21T10:06:37;7.70;;;3.47;;
84623;SDS011;74849;51.340;12.610;2024-02-21T10:09:07;10.57;;;4.05;;
84623;SDS011;74849;51.340;12.610;2024-02-21T10:11:34;9.02;;;4.03;;
84623;SDS011;74849;51.340;12.610;2024-02-21T10:14:03;12.18;;;4.03;;
84623;SDS011;74849;51.340;12.610;2024-02-21T10:16:33;11.43;;;4.53;;
84623;SDS011;74849;51.340;12.610;2024-02-21T10:19:00;15.70;;;4.65;;
84623;SDS011;74849;51.340;12.610;2024-02-21T10:21:29;8.88;;;3.70;;
84623;SDS011;74849;51.340;12.610;2024-02-21T10:23:56;7.50;;;3.42;;
84623;SDS011;74849;51.340;12.610;2024-02-21T10:26:22;11.07;;;3.35;;
84623;SDS011;74849;51.340;12.610;2024-02-21T10:28:49;9.88;;;4.25;;
84623;SDS011;74849;51.340;12.610;2024-02-21T10:31:21;7.03;;;3.60;;
84623;SDS011;74849;51.340;12.610;2024-02-21T10:33:58;12.13;;;3.83;;
84623;SDS011;74849;51.340;12.610;2024-02-21T10:36:29;9.93;;;3.90;;
84623;SDS011;74849;51.340;12.610;2024-02-21T10:38:56;8.68;;;3.85;;
84623;SDS011;74849;51.340;12.610;2024-02-21T10:41:23;9.45;;;4.20;;
84623;SDS011;74849;51.340;12.610;2024-02-21T10:43:51;8.10;;;3.85;;
84623;SDS011;74849;51.340;12.610;2024-02-21T10:46:20;7.22;;;3.50;;
84623;SDS011;74849;51.340;12.610;2024-02-21T10:48:55;7.55;;;3.78;;
84623;SDS011;74849;51.340;12.610;2024-02-21T10:51:54;7.68;;;3.40;;
84623;SDS011;74849;51.340;12.610;2024-02-21T10:57:16;8.88;;;3.60;;
84623;SDS011;74849;51.340;12.610;2024-02-21T10:59:44;9.18;;;3.15;;
84623;SDS011;74849;51.340;12.610;2024-02-21T11:02:11;12.35;;;4.18;;
84623;SDS011;74849;51.340;12.610;2024-02-21T11:04:38;6.13;;;3.05;;
84623;SDS011;74849;51.340;12.610;2024-02-21T11:07:07;7.03;;;3.75;;
84623;SDS011;74849;51.340;12.610;2024-02-21T11:09:34;9.05;;;3.40;;
84623;SDS011;74849;51.340;12.610;2024-02-21T11:12:02;11.20;;;3.83;;
84623;SDS011;74849;51.340;12.610;2024-02-21T11:14:30;8.68;;;3.88;;
84623;SDS011;74849;51.340;12.610;2024-02-21T11:17:14;8.73;;;3.72;;
84623;SDS011;74849;51.340;12.610;2024-02-21T11:19:45;9.27;;;3.65;;
84623;SDS011;74849;51.340;12.610;2024-02-21T11:22:17;9.98;;;3.80;;
84623;SDS011;74849;51.340;12.610;2024-02-21T11:27:12;7.82;;;3.60;;
84623;SDS011;74849;51.340;12.610;2024-02-21T11:37:30;8.10;;;3.55;;
84623;SDS011;74849;51.340;12.610;2024-02-21T11:40:02;10.50;;;3.80;;
84623;SDS011;74849;51.340;12.610;2024-02-21T11:42:32;10.85;;;3.95;;
84623;SDS011;74849;51.340;12.610;2024-02-21T11:45:00;6.50;;;2.42;;
84623;SDS011;74849;51.340;12.610;2024-02-21T11:47:28;9.40;;;3.45;;
84623;SDS011;74849;51.340;12.610;2024-02-21T11:49:55;7.57;;;3.38;;
84623;SDS011;74849;51.340;12.610;2024-02-21T11:52:22;5.60;;;2.97;;
84623;SDS011;74849;51.340;12.610;2024-02-21T11:54:51;9.68;;;2.97;;
84623;SDS011;74849;51.340;12.610;2024-02-21T11:57:19;5.30;;;2.55;;
84623;SDS011;74849;51.340;12.610;2024-02-21T11:59:46;6.65;;;2.75;;
84623;SDS011;74849;51.340;12.610;2024-02-21T12:02:14;5.13;;;2.22;;
84623;SDS011;74849;51.340;12.610;2024-02-21T12:04:41;5.50;;;2.97;;
84623;SDS011;74849;51.340;12.610;2024-02-21T12:07:09;5.97;;;2.65;;
84623;SDS011;74849;51.340;12.610;2024-02-21T12:09:36;4.07;;;2.08;;
84623;SDS011;74849;51.340;12.610;2024-02-21T12:12:03;5.70;;;2.40;;
84623;SDS011;74849;51.340;12.610;2024-02-21T12:14:31;7.68;;;2.83;;
84623;SDS011;74849;51.340;12.610;2024-02-21T12:16:59;5.75;;;2.55;;
84623;SDS011;74849;51.340;12.610;2024-02-21T12:19:30;6.30;;;2.83;;
84623;SDS011;74849;51.340;12.610;2024-02-21T12:21:59;7.05;;;3.00;;
84623;SDS011;74849;51.340;12.610;2024-02-21T12:24:26;10.77;;;2.28;;
84623;SDS011;74849;51.340;12.610;2024-02-21T12:26:54;7.25;;;2.83;;
84623;SDS011;74849;51.340;12.610;2024-02-21T12:29:22;7.72;;;2.50;;
84623;SDS011;74849;51.340;12.610;2024-02-21T12:31:50;5.85;;;2.50;;
84623;SDS011;74849;51.340;12.610;2024-02-21T12:34:17;6.75;;;2.85;;
84623;SDS011;74849;51.340;12.610;2024-02-21T12:36:45;6.55;;;2.45;;
84623;SDS011;74849;51.340;12.610;2024-02-21T12:39:15;10.80;;;2.95;;
84623;SDS011;74849;51.340;12.610;2024-02-21T12:41:43;6.13;;;2.33;;
84623;SDS011;74849;51.340;12.610;2024-02-21T12:44:10;5.78;;;2.30;;
84623;SDS011;74849;51.340;12.610;2024-02-21T12:46:38;5.00;;;2.55;;
84623;SDS011;74849;51.340;12.610;2024-02-21T12:49:08;5.55;;;2.40;;
84623;SDS011;74849;51.340;12.610;2024-02-21T12:51:35;7.40;;;2.33;;
84623;SDS011;74849;51.340;12.610;2024-02-21T12:54:03;5.45;;;2.55;;
84623;SDS011;74849;51.340;12.610;2024-02-21T12:56:30;5.63;;;2.15;;
84623;SDS011;74849;51.340;12.610;2024-02-21T12:58:57;4.63;;;2.05;;
84623;SDS011;74849;51.340;12.610;2024-02-21T13:01:24;5.25;;;2.08;;
84623;SDS011;74849;51.340;12.610;2024-02-21T13:03:52;4.80;;;2.20;;
84623;SDS011;74849;51.340;12.610;2024-02-21T13:06:19;4.53;;;2.78;;
84623;SDS011;74849;51.340;12.610;2024-02-21T13:08:46;5.50;;;2.65;;
84623;SDS011;74849;51.340;12.610;2024-02-21T13:11:13;5.72;;;2.47;;
84623;SDS011;74849;51.340;12.610;2024-02-21T13:13:40;8.45;;;2.70;;
84623;SDS011;74849;51.340;12.610;2024-02-21T13:16:07;5.35;;;2.58;;
84623;SDS011;74849;51.340;12.610;2024-02-21T13:18:36;3.88;;;2.00;;
84623;SDS011;74849;51.340;12.610;2024-02-21T13:23:35;5.68;;;2.00;;
84623;SDS011;74849;51.340;12.610;2024-02-21T13:26:02;3.42;;;2.05;;
84623;SDS011;74849;51.340;12.610;2024-02-21T13:28:29;7.70;;;2.60;;
84623;SDS011;74849;51.340;12.610;2024-02-21T13:30:58;3.45;;;2.10;;
84623;SDS011;74849;51.340;12.610;2024-02-21T13:33:25;5.78;;;2.38;;
84623;SDS011;74849;51.340;12.610;2024-02-21T13:35:52;4.93;;;2.10;;
84623;SDS011;74849;51.340;12.610;2024-02-21T13:38:19;4.13;;;1.95;;
84623;SDS011;74849;51.340;12.610;2024-02-21T13:40:46;4.68;;;2.05;;
84623;SDS011;74849;51.340;12.610;2024-02-21T13:43:13;3.42;;;2.03;;
84623;SDS011;74849;51.340;12.610;2024-02-21T13:45:40;3.30;;;2.35;;
84623;SDS011;74849;51.340;12.610;2024-02-21T13:48:08;6.78;;;3.67;;
84623;SDS011;74849;51.340;12.610;2024-02-21T13:50:37;5.68;;;3.28;;
84623;SDS011;74849;51.340;12.610;2024-02-21T13:53:09;6.15;;;2.80;;
84623;SDS011;74849;51.340;12.610;2024-02-21T13:55:36;7.70;;;3.72;;
84623;SDS011;74849;51.340;12.610;2024-02-21T13:58:03;5.97;;;2.50;;
84623;SDS011;74849;51.340;12.610;2024-02-21T14:00:30;4.63;;;2.30;;
84623;SDS011;74849;51.340;12.610;2024-02-21T14:02:58;3.47;;;1.67;;
84623;SDS011;74849;51.340;12.610;2024-02-21T14:05:26;6.65;;;2.25;;
84623;SDS011;74849;51.340;12.610;2024-02-21T14:07:53;6.63;;;3.20;;
84623;SDS011;74849;51.340;12.610;2024-02-21T14:10:21;4.72;;;2.17;;
84623;SDS011;74849;51.340;12.610;2024-02-21T14:12:48;4.55;;;1.77;;
84623;SDS011;74849;51.340;12.610;2024-02-21T14:15:15;5.53;;;2.13;;
84623;SDS011;74849;51.340;12.610;2024-02-21T14:17:42;5.55;;;2.30;;
84623;SDS011;74849;51.340;12.610;2024-02-21T14:20:09;4.40;;;2.28;;
84623;SDS011;74849;51.340;12.610;2024-02-21T14:22:39;4.70;;;2.15;;
84623;SDS011;74849;51.340;12.610;2024-02-21T14:25:06;4.65;;;1.90;;
84623;SDS011;74849;51.340;12.610;2024-02-21T14:27:34;4.38;;;2.20;;
84623;SDS011;74849;51.340;12.610;2024-02-21T14:30:03;3.33;;;2.00;;
84623;SDS011;74849;51.340;12.610;2024-02-21T14:32:31;4.22;;;2.10;;
84623;SDS011;74849;51.340;12.610;2024-02-21T14:34:58;4.93;;;2.40;;
84623;SDS011;74849;51.340;12.610;2024-02-21T14:37:25;6.78;;;2.78;;
84623;SDS011;74849;51.340;12.610;2024-02-21T14:39:52;4.18;;;2.00;;
84623;SDS011;74849;51.340;12.610;2024-02-21T14:42:19;5.30;;;2.42;;
84623;SDS011;74849;51.340;12.610;2024-02-21T14:44:46;5.50;;;2.08;;
84623;SDS011;74849;51.340;12.610;2024-02-21T14:47:12;5.95;;;2.33;;
84623;SDS011;74849;51.340;12.610;2024-02-21T14:49:39;4.70;;;2.50;;
84623;SDS011;74849;51.340;12.610;2024-02-21T14:52:06;6.28;;;2.25;;
84623;SDS011;74849;51.340;12.610;2024-02-21T14:54:33;6.50;;;2.30;;
84623;SDS011;74849;51.340;12.610;2024-02-21T14:57:00;9.00;;;1.92;;
84623;SDS011;74849;51.340;12.610;2024-02-21T14:59:28;4.72;;;2.25;;
84623;SDS011;74849;51.340;12.610;2024-02-21T15:01:55;11.10;;;2.15;;
84623;SDS011;74849;51.340;12.610;2024-02-21T15:04:22;4.75;;;2.00;;
84623;SDS011;74849;51.340;12.610;2024-02-21T15:06:50;6.57;;;2.20;;
84623;SDS011;74849;51.340;12.610;2024-02-21T15:09:17;7.53;;;1.90;;
84623;SDS011;74849;51.340;12.610;2024-02-21T15:11:45;5.13;;;1.85;;
84623;SDS011;74849;51.340;12.610;2024-02-21T15:14:12;5.15;;;2.03;;
84623;SDS011;74849;51.340;12.610;2024-02-21T15:16:39;8.13;;;2.03;;
84623;SDS011;74849;51.340;12.610;2024-02-21T15:19:06;4.35;;;1.75;;
84623;SDS011;74849;51.340;12.610;2024-02-21T15:21:32;6.07;;;2.80;;
84623;SDS011;74849;51.340;12.610;2024-02-21T15:23:59;4.45;;;1.80;;
84623;SDS011;74849;51.340;12.610;2024-02-21T15:26:27;5.00;;;2.00;;
84623;SDS011;74849;51.340;12.610;2024-02-21T15:28:55;3.72;;;2.15;;
84623;SDS011;74849;51.340;12.610;2024-02-21T15:31:22;4.38;;;2.03;;
84623;SDS011;74849;51.340;12.610;2024-02-21T15:33:52;6.15;;;1.90;;
84623;SDS011;74849;51.340;12.610;2024-02-21T15:36:19;5.90;;;1.85;;
84623;SDS011;74849;51.340;12.610;2024-02-21T15:38:46;5.85;;;1.95;;
84623;SDS011;74849;51.340;12.610;2024-02-21T15:41:14;4.72;;;2.92;;
84623;SDS011;74849;51.340;12.610;2024-02-21T15:43:40;5.35;;;2.50;;
84623;SDS011;74849;51.340;12.610;2024-02-21T15:46:13;4.85;;;2.38;;
84623;SDS011;74849;51.340;12.610;2024-02-21T15:48:40;6.07;;;3.20;;
84623;SDS011;74849;51.340;12.610;2024-02-21T15:51:07;7.40;;;2.90;;
84623;SDS011;74849;51.340;12.610;2024-02-21T15:53:34;7.88;;;3.03;;
84623;SDS011;74849;51.340;12.610;2024-02-21T15:56:03;7.95;;;3.03;;
84623;SDS011;74849;51.340;12.610;2024-02-21T15:58:30;5.97;;;2.60;;
84623;SDS011;74849;51.340;12.610;2024-02-21T16:00:58;6.05;;;2.67;;
84623;SDS011;74849;51.340;12.610;2024-02-21T16:03:25;3.75;;;2.38;;
84623;SDS011;74849;51.340;12.610;2024-02-21T16:05:52;5.80;;;2.47;;
84623;SDS011;74849;51.340;12.610;2024-02-21T16:08:19;9.50;;;2.65;;
84623;SDS011;74849;51.340;12.610;2024-02-21T16:10:46;6.53;;;2.65;;
84623;SDS011;74849;51.340;12.610;2024-02-21T16:13:13;4.18;;;2.10;;
84623;SDS011;74849;51.340;12.610;2024-02-21T16:15:40;8.10;;;2.22;;
84623;SDS011;74849;51.340;12.610;2024-02-21T16:18:08;5.80;;;2.60;;
84623;SDS011;74849;51.340;12.610;2024-02-21T16:20:35;3.72;;;2.33;;
84623;SDS011;74849;51.340;12.610;2024-02-21T16:23:02;4.63;;;2.47;;
84623;SDS011;74849;51.340;12.610;2024-02-21T16:25:30;4.40;;;2.20;;
84623;SDS011;74849;51.340;12.610;2024-02-21T16:27:57;4.05;;;2.10;;
84623;SDS011;74849;51.340;12.610;2024-02-21T16:30:24;6.03;;;2.42;;
84623;SDS011;74849;51.340;12.610;2024-02-21T16:32:51;5.72;;;2.22;;
84623;SDS011;74849;51.340;12.610;2024-02-21T16:35:19;4.82;;;1.90;;
84623;SDS011;74849;51.340;12.610;2024-02-21T16:37:46;4.35;;;1.90;;
84623;SDS011;74849;51.340;12.610;2024-02-21T16:40:13;3.70;;;1.75;;
84623;SDS011;74849;51.340;12.610;2024-02-21T16:42:40;8.43;;;4.60;;
84623;SDS011;74849;51.340;12.610;2024-02-21T16:45:07;4.40;;;2.83;;
84623;SDS011;74849;51.340;12.610;2024-02-21T16:47:34;3.88;;;2.30;;
84623;SDS011;74849;51.340;12.610;2024-02-21T16:50:01;4.75;;;3.17;;
84623;SDS011;74849;51.340;12.610;2024-02-21T16:52:30;6.20;;;3.97;;
84623;SDS011;74849;51.340;12.610;2024-02-21T16:54:57;11.07;;;5.85;;
84623;SDS011;74849;51.340;12.610;2024-02-21T16:57:24;16.75;;;9.88;;
84623;SDS011;74849;51.340;12.610;2024-02-21T16:59:51;13.43;;;8.45;;
84623;SDS011;74849;51.340;12.610;2024-02-21T17:02:18;14.60;;;10.50;;
84623;SDS011;74849;51.340;12.610;2024-02-21T17:04:45;8.15;;;3.13;;
84623;SDS011;74849;51.340;12.610;2024-02-21T17:07:13;5.80;;;2.20;;
84623;SDS011;74849;51.340;12.610;2024-02-21T17:09:40;7.93;;;2.53;;
84623;SDS011;74849;51.340;12.610;2024-02-21T17:12:06;6.88;;;2.70;;
84623;SDS011;74849;51.340;12.610;2024-02-21T17:14:34;5.78;;;2.38;;
84623;SDS011;74849;51.340;12.610;2024-02-21T17:17:00;4.72;;;2.40;;
84623;SDS011;74849;51.340;12.610;2024-02-21T17:19:27;5.18;;;2.55;;
84623;SDS011;74849;51.340;12.610;2024-02-21T17:21:54;5.85;;;2.25;;
84623;SDS011;74849;51.340;12.610;2024-02-21T17:24:21;5.55;;;2.38;;
84623;SDS011;74849;51.340;12.610;2024-02-21T17:26:49;8.35;;;2.20;;
84623;SDS011;74849;51.340;12.610;2024-02-21T17:29:16;6.38;;;2.40;;
84623;SDS011;74849;51.340;12.610;2024-02-21T17:31:43;16.60;;;8.07;;
84623;SDS011;74849;51.340;12.610;2024-02-21T17:34:09;6.72;;;3.42;;
84623;SDS011;74849;51.340;12.610;2024-02-21T17:36:37;7.47;;;3.40;;
84623;SDS011;74849;51.340;12.610;2024-02-21T17:39:04;9.23;;;2.65;;
84623;SDS011;74849;51.340;12.610;2024-02-21T17:41:33;6.55;;;2.03;;
84623;SDS011;74849;51.340;12.610;2024-02-21T17:44:00;3.50;;;2.03;;
84623;SDS011;74849;51.340;12.610;2024-02-21T17:46:27;6.60;;;2.30;;
84623;SDS011;74849;51.340;12.610;2024-02-21T17:48:54;7.80;;;2.20;;
84623;SDS011;74849;51.340;12.610;2024-02-21T17:51:21;6.82;;;2.45;;
84623;SDS011;74849;51.340;12.610;2024-02-21T17:53:48;6.07;;;2.55;;
84623;SDS011;74849;51.340;12.610;2024-02-21T17:56:14;4.97;;;2.28;;
84623;SDS011;74849;51.340;12.610;2024-02-21T17:58:42;3.83;;;1.65;;
84623;SDS011;74849;51.340;12.610;2024-02-21T18:01:09;7.22;;;1.85;;
84623;SDS011;74849;51.340;12.610;2024-02-21T18:03:35;5.20;;;1.92;;
84623;SDS011;74849;51.340;12.610;2024-02-21T18:06:02;6.00;;;1.58;;
84623;SDS011;74849;51.340;12.610;2024-02-21T18:08:30;5.47;;;1.75;;
84623;SDS011;74849;51.340;12.610;2024-02-21T18:10:58;6.88;;;2.40;;
84623;SDS011;74849;51.340;12.610;2024-02-21T18:13:25;4.53;;;1.65;;
84623;SDS011;74849;51.340;12.610;2024-02-21T18:15:52;7.15;;;2.00;;
84623;SDS011;74849;51.340;12.610;2024-02-21T18:18:19;7.13;;;1.80;;
84623;SDS011;74849;51.340;12.610;2024-02-21T18:20:46;6.03;;;1.80;;
84623;SDS011;74849;51.340;12.610;2024-02-21T18:23:14;4.20;;;1.80;;
84623;SDS011;74849;51.340;12.610;2024-02-21T18:25:41;4.63;;;2.20;;
84623;SDS011;74849;51.340;12.610;2024-02-21T18:28:08;7.75;;;2.50;;
84623;SDS011;74849;51.340;12.610;2024-02-21T18:30:37;9.52;;;2.90;;
84623;SDS011;74849;51.340;12.610;2024-02-21T18:33:04;5.22;;;2.70;;
84623;SDS011;74849;51.340;12.610;2024-02-21T18:35:31;6.53;;;2.10;;
84623;SDS011;74849;51.340;12.610;2024-02-21T18:37:58;8.18;;;2.40;;
84623;SDS011;74849;51.340;12.610;2024-02-21T18:40:25;7.95;;;2.90;;
84623;SDS011;74849;51.340;12.610;2024-02-21T18:42:53;5.43;;;2.30;;
84623;SDS011;74849;51.340;12.610;2024-02-21T18:45:24;5.78;;;2.08;;
84623;SDS011;74849;51.340;12.610;2024-02-21T18:47:51;3.75;;;2.00;;
84623;SDS011;74849;51.340;12.610;2024-02-21T18:50:18;5.88;;;2.00;;
84623;SDS011;74849;51.340;12.610;2024-02-21T18:52:45;4.85;;;1.73;;
84623;SDS011;74849;51.340;12.610;2024-02-21T18:55:17;5.72;;;1.80;;
84623;SDS011;74849;51.340;12.610;2024-02-21T18:57:44;3.95;;;2.00;;
84623;SDS011;74849;51.340;12.610;2024-02-21T19:00:11;6.65;;;1.92;;
84623;SDS011;74849;51.340;12.610;2024-02-21T19:02:41;3.70;;;1.92;;
84623;SDS011;74849;51.340;12.610;2024-02-21T19:05:08;3.33;;;1.90;;
84623;SDS011;74849;51.340;12.610;2024-02-21T19:07:35;5.20;;;2.30;;
84623;SDS011;74849;51.340;12.610;2024-02-21T19:10:04;5.32;;;1.90;;
84623;SDS011;74849;51.340;12.610;2024-02-21T19:12:31;5.35;;;1.80;;
84623;SDS011;74849;51.340;12.610;2024-02-21T19:14:58;5.28;;;1.70;;
84623;SDS011;74849;51.340;12.610;2024-02-21T19:17:25;3.80;;;1.95;;
84623;SDS011;74849;51.340;12.610;2024-02-21T19:19:54;17.75;;;2.00;;
84623;SDS011;74849;51.340;12.610;2024-02-21T19:22:21;4.03;;;2.00;;
84623;SDS011;74849;51.340;12.610;2024-02-21T19:24:50;3.80;;;1.95;;
84623;SDS011;74849;51.340;12.610;2024-02-21T19:27:17;8.50;;;2.10;;
84623;SDS011;74849;51.340;12.610;2024-02-21T19:29:44;3.97;;;1.50;;
84623;SDS011;74849;51.340;12.610;2024-02-21T19:32:11;4.68;;;1.80;;
84623;SDS011;74849;51.340;12.610;2024-02-21T19:34:38;5.18;;;1.80;;
84623;SDS011;74849;51.340;12.610;2024-02-21T19:37:05;5.22;;;1.55;;
84623;SDS011;74849;51.340;12.610;2024-02-21T19:39:32;7.35;;;1.83;;
84623;SDS011;74849;51.340;12.610;2024-02-21T19:41:59;4.60;;;1.90;;
84623;SDS011;74849;51.340;12.610;2024-02-21T19:44:26;3.97;;;1.55;;
84623;SDS011;74849;51.340;12.610;2024-02-21T19:46:53;2.33;;;1.17;;
84623;SDS011;74849;51.340;12.610;2024-02-21T19:49:20;3.92;;;1.45;;
84623;SDS011;74849;51.340;12.610;2024-02-21T19:51:46;3.38;;;1.58;;
84623;SDS011;74849;51.340;12.610;2024-02-21T19:54:13;2.20;;;1.30;;
84623;SDS011;74849;51.340;12.610;2024-02-21T19:56:44;7.03;;;2.13;;
84623;SDS011;74849;51.340;12.610;2024-02-21T19:59:12;5.45;;;2.05;;
84623;SDS011;74849;51.340;12.610;2024-02-21T20:01:38;4.57;;;2.03;;
84623;SDS011;74849;51.340;12.610;2024-02-21T20:04:05;6.50;;;1.90;;
84623;SDS011;74849;51.340;12.610;2024-02-21T20:06:33;6.32;;;1.80;;
84623;SDS011;74849;51.340;12.610;2024-02-21T20:09:00;7.43;;;1.83;;
84623;SDS011;74849;51.340;12.610;2024-02-21T20:11:32;4.50;;;1.52;;
84623;SDS011;74849;51.340;12.610;2024-02-21T20:13:59;6.15;;;1.50;;
84623;SDS011;74849;51.340;12.610;2024-02-21T20:16:27;3.72;;;1.40;;
84623;SDS011;74849;51.340;12.610;2024-02-21T20:18:55;5.57;;;1.55;;
84623;SDS011;74849;51.340;12.610;2024-02-21T20:21:23;4.68;;;1.92;;
84623;SDS011;74849;51.340;12.610;2024-02-21T20:23:50;3.53;;;1.80;;
84623;SDS011;74849;51.340;12.610;2024-02-21T20:26:17;3.53;;;2.00;;